Cheshire, Oregon
Current Conditions -  °F | °C
As of 10:54 AM on Thursday 18 Dec 2014 (Local Time) from KEUG Reporting Station
Overcast Overcast  
Wind Chill: 51°   Ceiling: 4100
Heat Index: 51°   Visibility: 10mi
Dew Point: 45°   Wind: 7mph
Humidity: 80%   Direction: 160°SSE
Pressure: 29.96"   Gusts: NA
Location:  44.19°N, 123.29°W
Report Text: KEUG 181854Z 16006KT 10SM BKN041 OVC049 11/07 A2996 RMK AO2 SLP145 T01060072
Loading
Personal Weather Stations






























Interactive Weather Map New forecast layout! Learn more

10-Day Weather Forecast

Advertisements
Track Severe Weather on mobile